createdAt,value
2023-05-06T00:00:22.217Z,277.92
2023-05-06T00:02:49.654Z,279.67
2023-05-06T00:05:18.385Z,290.13
2023-05-06T00:07:47.093Z,240.82
2023-05-06T00:10:14.520Z,214.32
2023-05-06T00:12:41.852Z,187.98
2023-05-06T00:15:09.596Z,190.82
2023-05-06T00:17:37.101Z,224.65
2023-05-06T00:20:04.851Z,239.63
2023-05-06T00:22:32.159Z,288.52
2023-05-06T00:25:00.795Z,265.63
2023-05-06T00:27:28.152Z,240.45
2023-05-06T00:29:55.534Z,286.48
2023-05-06T00:32:23.095Z,236.05
2023-05-06T00:34:50.489Z,256.08
2023-05-06T00:37:17.864Z,327.45
2023-05-06T00:39:45.174Z,236.40
2023-05-06T00:42:13.854Z,226.15
2023-05-06T00:44:41.161Z,265.73
2023-05-06T00:47:08.540Z,203.95
2023-05-06T00:49:35.911Z,217.95
2023-05-06T00:52:03.671Z,255.73
2023-05-06T00:54:31.344Z,239.18
2023-05-06T00:56:58.734Z,332.42
2023-05-06T00:59:27.481Z,247.80
2023-05-06T01:01:54.848Z,224.43
2023-05-06T01:04:22.517Z,271.95
2023-05-06T01:06:52.598Z,265.67
2023-05-06T01:09:21.830Z,197.85
2023-05-06T01:11:51.633Z,232.52
2023-05-06T01:14:22.655Z,293.02
2023-05-06T01:16:53.694Z,222.82
2023-05-06T01:19:29.551Z,217.60
2023-05-06T01:21:57.873Z,213.15
2023-05-06T01:24:36.323Z,196.13
2023-05-06T01:27:03.643Z,203.20
2023-05-06T01:29:31.103Z,217.65
2023-05-06T01:32:00.859Z,210.32
2023-05-06T01:34:32.346Z,214.85
2023-05-06T01:37:05.168Z,1196.75
2023-05-06T01:39:33.283Z,807.33
2023-05-06T01:42:03.554Z,450.80
2023-05-06T01:44:33.930Z,581.80
2023-05-06T01:47:01.619Z,1174.03
2023-05-06T01:49:29.051Z,1409.03
2023-05-06T01:51:56.497Z,784.63
2023-05-06T01:54:23.773Z,299.15
2023-05-06T01:56:51.245Z,194.23
2023-05-06T01:59:20.078Z,169.75
2023-05-06T02:01:47.472Z,177.32
2023-05-06T02:04:15.438Z,187.25
2023-05-06T02:06:42.818Z,145.85
2023-05-06T02:09:10.180Z,223.57
2023-05-06T02:11:37.508Z,178.77
2023-05-06T02:14:04.900Z,198.52
2023-05-06T02:16:33.705Z,214.10
2023-05-06T02:19:01.138Z,228.30
2023-05-06T02:21:28.792Z,269.10
2023-05-06T02:23:56.069Z,256.40
2023-05-06T02:26:23.387Z,341.85
2023-05-06T02:28:50.697Z,317.67
2023-05-06T02:31:18.039Z,211.82
2023-05-06T02:33:46.736Z,224.07
2023-05-06T02:36:14.107Z,180.05
2023-05-06T02:38:41.417Z,181.93
2023-05-06T02:41:08.764Z,180.05
2023-05-06T02:43:36.076Z,205.05
2023-05-06T02:46:03.502Z,193.25
2023-05-06T02:48:30.848Z,224.70
2023-05-06T02:50:59.838Z,196.88
2023-05-06T02:53:27.167Z,172.68
2023-05-06T02:55:54.500Z,165.45
2023-05-06T02:58:21.873Z,162.15
2023-05-06T03:00:49.257Z,178.93
2023-05-06T03:03:16.634Z,202.38
2023-05-06T03:05:43.950Z,206.13
2023-05-06T03:08:12.672Z,162.40
2023-05-06T03:10:39.957Z,156.20
2023-05-06T03:13:07.273Z,206.52
2023-05-06T03:15:34.924Z,202.13
2023-05-06T03:18:02.310Z,190.52
2023-05-06T03:20:29.683Z,234.20
2023-05-06T03:22:57.071Z,246.57
2023-05-06T03:25:25.793Z,246.57
2023-05-06T03:27:53.104Z,205.95
2023-05-06T03:30:20.877Z,249.95
2023-05-06T03:32:48.471Z,185.02
2023-05-06T03:35:15.912Z,176.02
2023-05-06T03:37:43.266Z,196.93
2023-05-06T03:40:10.684Z,204.50
2023-05-06T03:42:39.381Z,165.95
2023-05-06T03:45:07.844Z,157.48
2023-05-06T03:47:35.479Z,117.90
2023-05-06T03:50:02.872Z,108.85
2023-05-06T03:52:30.399Z,163.07
2023-05-06T03:54:57.725Z,124.97
2023-05-06T03:57:25.026Z,113.43
2023-05-06T03:59:53.684Z,109.10
2023-05-06T04:02:21.049Z,115.55
2023-05-06T04:04:48.395Z,137.57
2023-05-06T04:07:15.703Z,168.05
2023-05-06T04:09:42.988Z,200.43
2023-05-06T04:12:10.608Z,191.38
2023-05-06T04:14:37.969Z,119.20
2023-05-06T04:17:07.079Z,108.28
2023-05-06T04:19:34.481Z,197.90
2023-05-06T04:22:02.288Z,165.43
2023-05-06T04:24:31.102Z,197.10
2023-05-06T04:26:58.393Z,208.18
2023-05-06T04:29:26.234Z,161.50
2023-05-06T04:31:54.257Z,127.28
2023-05-06T04:34:24.901Z,149.02
2023-05-06T04:36:54.039Z,197.95
2023-05-06T04:39:21.498Z,123.07
2023-05-06T04:41:49.022Z,174.63
2023-05-06T04:44:16.623Z,117.30
2023-05-06T04:46:43.940Z,95.68
2023-05-06T04:49:12.527Z,326.73
2023-05-06T04:51:41.405Z,136.65
2023-05-06T04:54:08.758Z,104.65
2023-05-06T04:56:36.100Z,64.15
2023-05-06T04:59:03.419Z,58.38
2023-05-06T05:01:30.935Z,36.17
2023-05-06T05:03:58.352Z,62.78
2023-05-06T05:06:25.761Z,34.40
2023-05-06T05:08:55.423Z,23.30
2023-05-06T05:11:22.904Z,24.25
2023-05-06T05:13:50.208Z,18.38
2023-05-06T05:16:17.586Z,14.70
2023-05-06T05:18:44.890Z,12.57
2023-05-06T05:21:12.230Z,12.38
2023-05-06T05:23:39.629Z,14.00
2023-05-06T05:26:08.343Z,11.93
2023-05-06T05:28:35.655Z,10.90
2023-05-06T05:31:03.938Z,9.82
2023-05-06T05:33:31.352Z,10.63
2023-05-06T05:35:58.818Z,11.32
2023-05-06T05:38:26.255Z,9.40
2023-05-06T05:40:53.643Z,10.10
2023-05-06T05:43:22.678Z,9.68
2023-05-06T05:45:49.988Z,12.30
2023-05-06T05:48:17.362Z,12.77
2023-05-06T05:50:44.687Z,9.77
2023-05-06T05:53:11.970Z,11.07
2023-05-06T05:55:39.290Z,8.73
2023-05-06T05:58:06.602Z,8.93
2023-05-06T06:00:35.286Z,11.23
2023-05-06T06:03:02.665Z,5.82
2023-05-06T06:05:30.007Z,6.72
2023-05-06T06:07:57.345Z,5.68
2023-05-06T06:10:24.674Z,5.03
2023-05-06T06:12:52.220Z,3.92
2023-05-06T06:15:19.592Z,4.45
2023-05-06T06:17:48.352Z,5.25
2023-05-06T06:20:15.721Z,3.97
2023-05-06T06:22:42.998Z,3.90
2023-05-06T06:25:10.863Z,4.28
2023-05-06T06:27:38.377Z,5.90
2023-05-06T06:30:06.149Z,5.18
2023-05-06T06:32:33.534Z,4.75
2023-05-06T06:35:02.188Z,5.40
2023-05-06T06:37:29.548Z,4.85
2023-05-06T06:39:56.862Z,4.40
2023-05-06T06:42:24.196Z,4.03
2023-05-06T06:44:51.556Z,4.35
2023-05-06T06:47:18.888Z,6.13
2023-05-06T06:49:46.208Z,8.88
2023-05-06T06:52:14.841Z,4.60
2023-05-06T06:54:42.212Z,8.45
2023-05-06T06:57:09.532Z,7.93
2023-05-06T06:59:36.852Z,7.72
2023-05-06T07:02:04.429Z,9.32
2023-05-06T07:04:31.878Z,8.50
2023-05-06T07:06:59.211Z,4.53
2023-05-06T07:09:27.822Z,6.10
2023-05-06T07:11:55.110Z,7.10
2023-05-06T07:14:22.406Z,7.18
2023-05-06T07:16:51.495Z,6.00
2023-05-06T07:19:18.986Z,5.82
2023-05-06T07:21:46.312Z,5.90
2023-05-06T07:24:13.620Z,9.30
2023-05-06T07:26:42.238Z,6.22
2023-05-06T07:29:09.540Z,6.20
2023-05-06T07:31:36.865Z,4.78
2023-05-06T07:34:04.210Z,7.50
2023-05-06T07:36:36.121Z,7.05
2023-05-06T07:39:04.657Z,6.72
2023-05-06T07:41:31.927Z,8.55
2023-05-06T07:44:00.603Z,6.75
2023-05-06T07:46:28.001Z,4.05
2023-05-06T07:48:55.387Z,5.50
2023-05-06T07:51:23.068Z,7.22
2023-05-06T07:53:50.424Z,5.45
2023-05-06T07:56:18.309Z,5.65
2023-05-06T07:58:45.626Z,5.38
2023-05-06T08:01:14.276Z,5.82
2023-05-06T08:03:41.658Z,3.20
2023-05-06T08:06:09.109Z,1.42
2023-05-06T08:08:36.390Z,1.67
2023-05-06T08:11:03.903Z,1.98
2023-05-06T08:13:33.247Z,2.50
2023-05-06T08:16:02.149Z,1.33
2023-05-06T08:18:30.992Z,2.70
2023-05-06T08:20:58.316Z,4.38
2023-05-06T08:23:25.633Z,3.70
2023-05-06T08:25:53.026Z,2.83
2023-05-06T08:28:20.346Z,6.80
2023-05-06T08:30:48.421Z,2.78
2023-05-06T08:33:15.853Z,4.43
2023-05-06T08:35:44.741Z,4.72
2023-05-06T08:38:12.090Z,2.72
2023-05-06T08:40:45.997Z,3.92
2023-05-06T08:43:14.092Z,3.20
2023-05-06T08:45:41.872Z,5.15
2023-05-06T08:48:09.667Z,4.45
2023-05-06T08:50:39.474Z,5.22
2023-05-06T08:53:08.326Z,2.90
2023-05-06T08:55:36.168Z,5.43
2023-05-06T08:58:04.284Z,7.00
2023-05-06T09:00:31.671Z,5.80
2023-05-06T09:02:59.072Z,3.13
2023-05-06T09:05:26.408Z,5.43
2023-05-06T09:07:56.299Z,2.25
2023-05-06T09:10:24.985Z,3.17
2023-05-06T09:12:54.583Z,6.88
2023-05-06T09:15:24.609Z,2.90
2023-05-06T09:17:51.994Z,4.75
2023-05-06T09:20:19.405Z,3.75
2023-05-06T09:22:46.882Z,5.05
2023-05-06T09:25:14.373Z,4.57
2023-05-06T09:27:43.011Z,4.55
2023-05-06T09:30:11.697Z,2.85
2023-05-06T09:32:40.503Z,5.75
2023-05-06T09:35:09.261Z,2.40
2023-05-06T09:37:36.921Z,3.70
2023-05-06T09:40:04.335Z,5.55
2023-05-06T09:42:32.326Z,4.57
2023-05-06T09:45:02.132Z,7.28
2023-05-06T09:47:33.393Z,3.20
2023-05-06T09:50:01.635Z,3.20
2023-05-06T09:52:29.064Z,3.88
2023-05-06T09:54:56.468Z,3.65
2023-05-06T09:57:23.880Z,2.13
2023-05-06T09:59:51.996Z,4.20
2023-05-06T10:02:20.905Z,4.03
2023-05-06T10:04:50.009Z,3.83
2023-05-06T10:07:19.881Z,5.28
2023-05-06T10:09:47.795Z,5.45
2023-05-06T10:12:15.797Z,3.28
2023-05-06T10:14:43.144Z,5.57
2023-05-06T10:17:11.261Z,2.53
2023-05-06T10:19:40.812Z,2.88
2023-05-06T10:22:11.610Z,4.13
2023-05-06T10:24:45.658Z,2.70
2023-05-06T10:27:13.168Z,3.53
2023-05-06T10:29:40.802Z,4.38
2023-05-06T10:32:10.163Z,3.75
2023-05-06T10:34:41.852Z,5.13
2023-05-06T10:37:11.223Z,3.75
2023-05-06T10:39:40.852Z,4.15
2023-05-06T10:42:11.049Z,4.88
2023-05-06T10:44:56.922Z,6.65
2023-05-06T10:47:24.351Z,4.40
2023-05-06T10:50:06.567Z,5.25
2023-05-06T10:52:46.206Z,4.30
2023-05-06T10:55:25.882Z,5.30
2023-05-06T10:57:54.784Z,6.50
2023-05-06T11:00:22.514Z,4.50
2023-05-06T11:02:52.077Z,4.95
2023-05-06T11:05:19.438Z,5.25
2023-05-06T11:07:50.367Z,3.50
2023-05-06T11:10:31.677Z,5.00
2023-05-06T11:12:59.033Z,4.35
2023-05-06T11:15:27.134Z,4.15
2023-05-06T11:17:55.387Z,4.60
2023-05-06T11:20:24.326Z,5.10
2023-05-06T11:22:53.366Z,4.28
2023-05-06T11:25:47.906Z,3.13
2023-05-06T11:28:15.996Z,2.25
2023-05-06T11:30:43.881Z,5.78
2023-05-06T11:33:14.998Z,4.97
2023-05-06T11:35:42.313Z,5.28
2023-05-06T11:38:11.077Z,4.55
2023-05-06T11:40:38.440Z,4.00
2023-05-06T11:43:12.220Z,4.53
2023-05-06T11:45:43.158Z,3.80
2023-05-06T11:48:12.357Z,3.22
2023-05-06T11:50:39.645Z,4.68
2023-05-06T11:53:07.828Z,4.47
2023-05-06T11:55:38.045Z,2.58
2023-05-06T11:58:06.459Z,3.95
2023-05-06T12:00:37.425Z,6.05
2023-05-06T12:03:06.756Z,5.60
2023-05-06T12:05:35.244Z,3.53
2023-05-06T12:08:08.357Z,2.85
2023-05-06T12:10:42.946Z,4.30
2023-05-06T12:13:10.674Z,5.45
2023-05-06T12:15:38.246Z,2.85
2023-05-06T12:18:05.992Z,4.60
2023-05-06T12:20:33.428Z,5.75
2023-05-06T12:23:07.245Z,3.38
2023-05-06T12:25:34.550Z,4.07
2023-05-06T12:28:13.778Z,5.70
2023-05-06T12:30:41.120Z,3.90
2023-05-06T12:33:09.373Z,5.63
2023-05-06T12:35:36.695Z,3.83
2023-05-06T12:38:13.449Z,2.88
2023-05-06T12:40:41.002Z,1.63
2023-05-06T12:43:10.172Z,4.32
2023-05-06T12:45:38.483Z,3.05
2023-05-06T12:48:06.684Z,2.53
2023-05-06T12:50:35.124Z,4.15
2023-05-06T12:53:02.621Z,4.10
2023-05-06T12:55:30.974Z,3.85
2023-05-06T12:57:58.292Z,4.65
2023-05-06T13:00:26.950Z,3.40
2023-05-06T13:02:54.383Z,2.17
2023-05-06T13:05:21.843Z,5.85
2023-05-06T13:07:50.785Z,3.20
2023-05-06T13:10:18.083Z,2.85
2023-05-06T13:12:45.410Z,2.35
2023-05-06T13:15:12.762Z,5.28
2023-05-06T13:17:41.411Z,3.17
2023-05-06T13:20:09.412Z,2.97
2023-05-06T13:22:50.759Z,4.97
2023-05-06T13:25:21.640Z,5.45
2023-05-06T13:27:48.949Z,2.60
2023-05-06T13:30:16.768Z,4.68
2023-05-06T13:32:45.975Z,4.82
2023-05-06T13:35:13.487Z,4.32
2023-05-06T13:37:40.848Z,3.90
2023-05-06T13:40:09.020Z,3.53
2023-05-06T13:42:37.084Z,5.68
2023-05-06T13:45:04.502Z,3.30
2023-05-06T13:47:31.808Z,2.53
2023-05-06T13:50:00.744Z,4.07
2023-05-06T13:52:28.103Z,3.60
2023-05-06T13:54:56.663Z,4.50
2023-05-06T13:57:25.785Z,1.90
2023-05-06T13:59:53.093Z,4.15
2023-05-06T14:02:20.436Z,7.88
2023-05-06T14:04:47.794Z,2.33
2023-05-06T14:07:16.624Z,6.13
2023-05-06T14:09:43.909Z,2.90
2023-05-06T14:12:11.265Z,1.95
2023-05-06T14:14:38.643Z,6.20
2023-05-06T14:17:05.924Z,3.10
2023-05-06T14:19:33.256Z,5.07
2023-05-06T14:22:00.555Z,5.28
2023-05-06T14:24:29.215Z,4.53
2023-05-06T14:26:56.587Z,5.63
2023-05-06T14:29:24.063Z,5.45
2023-05-06T14:31:53.104Z,4.00
2023-05-06T14:34:20.476Z,3.58
2023-05-06T14:36:47.859Z,5.90
2023-05-06T14:39:15.167Z,5.28
2023-05-06T14:41:43.842Z,2.80
2023-05-06T14:44:11.158Z,2.88
2023-05-06T14:46:38.539Z,6.90
2023-05-06T14:49:05.998Z,4.18
2023-05-06T14:51:34.221Z,6.03
2023-05-06T14:54:01.898Z,3.65
2023-05-06T14:56:29.277Z,4.60
2023-05-06T14:58:57.915Z,3.88
2023-05-06T15:01:25.410Z,7.95
2023-05-06T15:03:53.178Z,5.00
2023-05-06T15:06:20.570Z,5.53
2023-05-06T15:08:47.917Z,5.13
2023-05-06T15:11:15.268Z,6.93
2023-05-06T15:13:42.538Z,4.30
2023-05-06T15:16:11.662Z,6.13
2023-05-06T15:18:41.556Z,2.88
2023-05-06T15:21:08.869Z,4.68
2023-05-06T15:23:36.171Z,3.53
2023-05-06T15:26:03.598Z,4.72
2023-05-06T15:28:30.899Z,2.20
2023-05-06T15:30:58.296Z,3.45
2023-05-06T15:33:27.117Z,2.47
2023-05-06T15:35:57.511Z,2.75
2023-05-06T15:38:24.799Z,5.60
2023-05-06T15:40:52.838Z,4.43
2023-05-06T15:43:23.253Z,2.83
2023-05-06T15:45:51.260Z,3.45
2023-05-06T15:48:18.596Z,3.03
2023-05-06T15:50:47.997Z,7.18
2023-05-06T15:53:15.608Z,6.32
2023-05-06T15:55:46.418Z,3.58
2023-05-06T15:58:16.833Z,6.30
2023-05-06T16:00:44.132Z,5.97
2023-05-06T16:03:12.400Z,12.77
2023-05-06T16:05:40.231Z,5.65
2023-05-06T16:08:08.939Z,8.25
2023-05-06T16:10:36.325Z,6.43
2023-05-06T16:13:03.733Z,8.38
2023-05-06T16:15:31.246Z,9.20
2023-05-06T16:17:58.669Z,8.65
2023-05-06T16:20:26.465Z,8.32
2023-05-06T16:22:53.906Z,9.77
2023-05-06T16:25:23.876Z,10.20
2023-05-06T16:27:51.599Z,9.18
2023-05-06T16:30:18.905Z,9.80
2023-05-06T16:32:46.278Z,8.80
2023-05-06T16:35:13.791Z,7.35
2023-05-06T16:37:42.510Z,6.43
2023-05-06T16:40:10.479Z,5.05
2023-05-06T16:42:39.385Z,5.28
2023-05-06T16:45:07.380Z,3.83
2023-05-06T16:47:34.868Z,7.68
2023-05-06T16:50:02.501Z,5.50
2023-05-06T16:52:30.784Z,6.60
2023-05-06T16:54:58.229Z,5.97
2023-05-06T16:57:25.591Z,6.65
2023-05-06T16:59:54.329Z,5.97
2023-05-06T17:02:21.761Z,6.43
2023-05-06T17:04:49.177Z,9.20
2023-05-06T17:07:16.488Z,8.45
2023-05-06T17:09:43.795Z,7.47
2023-05-06T17:12:11.166Z,6.32
2023-05-06T17:14:40.978Z,6.25
2023-05-06T17:17:09.638Z,9.05
2023-05-06T17:19:36.923Z,6.88
2023-05-06T17:22:04.214Z,8.55
2023-05-06T17:24:31.542Z,7.97
2023-05-06T17:26:59.084Z,9.32
2023-05-06T17:29:28.707Z,8.20
2023-05-06T17:31:55.990Z,9.40
2023-05-06T17:34:24.665Z,9.00
2023-05-06T17:36:52.004Z,7.68
2023-05-06T17:39:19.304Z,6.95
2023-05-06T17:41:46.603Z,8.73
2023-05-06T17:44:16.383Z,5.88
2023-05-06T17:46:45.311Z,7.47
2023-05-06T17:49:12.708Z,8.90
2023-05-06T17:51:45.006Z,6.53
2023-05-06T17:54:12.301Z,6.82
2023-05-06T17:56:39.692Z,9.18
2023-05-06T17:59:07.340Z,8.32
2023-05-06T18:01:34.652Z,9.45
2023-05-06T18:04:02.121Z,5.80
2023-05-06T18:06:29.530Z,5.97
2023-05-06T18:08:58.250Z,5.75
2023-05-06T18:11:25.639Z,5.25
2023-05-06T18:13:53.380Z,6.00
2023-05-06T18:16:20.706Z,5.57
2023-05-06T18:18:48.267Z,5.30
2023-05-06T18:21:15.568Z,4.72
2023-05-06T18:23:42.875Z,7.65
2023-05-06T18:26:12.018Z,5.80
2023-05-06T18:28:40.916Z,7.47
2023-05-06T18:31:08.314Z,7.10
2023-05-06T18:33:36.014Z,8.27
2023-05-06T18:36:03.400Z,9.10
2023-05-06T18:38:30.710Z,8.07
2023-05-06T18:40:58.496Z,5.35
2023-05-06T18:43:27.142Z,5.95
2023-05-06T18:45:54.506Z,6.55
2023-05-06T18:48:21.890Z,4.93
2023-05-06T18:50:50.796Z,5.72
2023-05-06T18:53:18.123Z,5.82
2023-05-06T18:55:45.432Z,4.80
2023-05-06T18:58:12.745Z,7.30
2023-05-06T19:00:41.497Z,5.07
2023-05-06T19:03:09.306Z,6.93
2023-05-06T19:05:37.781Z,7.05
2023-05-06T19:08:07.238Z,5.55
2023-05-06T19:10:34.888Z,9.07
2023-05-06T19:13:02.829Z,5.95
2023-05-06T19:15:31.219Z,5.82
2023-05-06T19:18:00.060Z,7.18
2023-05-06T19:20:27.786Z,6.82
2023-05-06T19:22:55.152Z,5.72
2023-05-06T19:25:22.751Z,5.13
2023-05-06T19:27:50.093Z,7.25
2023-05-06T19:30:17.508Z,5.72
2023-05-06T19:32:44.818Z,5.85
2023-05-06T19:35:13.629Z,7.88
2023-05-06T19:37:41.008Z,8.70
2023-05-06T19:40:08.924Z,8.27
2023-05-06T19:42:36.205Z,11.80
2023-05-06T19:45:07.547Z,7.10
2023-05-06T19:47:35.095Z,7.68
2023-05-06T19:50:02.449Z,9.20
2023-05-06T19:52:31.507Z,11.02
2023-05-06T19:54:59.573Z,9.95
2023-05-06T19:57:27.609Z,11.70
2023-05-06T19:59:56.513Z,7.95
2023-05-06T20:02:24.330Z,6.82
2023-05-06T20:04:51.728Z,7.05
2023-05-06T20:07:20.560Z,8.35
2023-05-06T20:09:54.979Z,7.88
2023-05-06T20:12:22.324Z,8.40
2023-05-06T20:14:50.365Z,9.30
2023-05-06T20:17:17.726Z,10.93
2023-05-06T20:19:45.088Z,8.05
2023-05-06T20:22:12.389Z,11.65
2023-05-06T20:24:41.467Z,9.90
2023-05-06T20:27:10.308Z,12.05
2023-05-06T20:29:37.726Z,9.32
2023-05-06T20:32:05.390Z,13.18
2023-05-06T20:34:32.776Z,10.30
2023-05-06T20:37:01.220Z,10.57
2023-05-06T20:39:28.615Z,12.82
2023-05-06T20:41:55.926Z,8.93
2023-05-06T20:44:24.897Z,8.77
2023-05-06T20:46:52.207Z,10.82
2023-05-06T20:49:19.588Z,11.48
2023-05-06T20:51:46.988Z,10.48
2023-05-06T20:54:14.284Z,10.10
2023-05-06T20:56:42.770Z,8.00
2023-05-06T20:59:10.083Z,13.93
2023-05-06T21:01:38.855Z,12.32
2023-05-06T21:04:06.491Z,11.90
2023-05-06T21:06:33.789Z,9.50
2023-05-06T21:09:01.075Z,11.55
2023-05-06T21:11:28.976Z,12.48
2023-05-06T21:13:56.395Z,10.57
2023-05-06T21:16:23.679Z,9.43
2023-05-06T21:18:52.394Z,12.00
2023-05-06T21:21:19.757Z,10.82
2023-05-06T21:23:47.071Z,12.05
2023-05-06T21:26:15.502Z,10.85
2023-05-06T21:28:42.889Z,12.65
2023-05-06T21:31:10.263Z,11.52
2023-05-06T21:33:37.598Z,10.07
2023-05-06T21:36:06.804Z,12.55
2023-05-06T21:38:34.152Z,12.65
2023-05-06T21:41:01.445Z,11.38
2023-05-06T21:43:29.806Z,13.55
2023-05-06T21:45:58.277Z,12.18
2023-05-06T21:48:25.675Z,14.80
2023-05-06T21:50:54.820Z,13.05
2023-05-06T21:53:23.462Z,14.40
2023-05-06T21:55:50.848Z,13.52
2023-05-06T21:58:18.400Z,15.80
2023-05-06T22:00:45.932Z,18.08
2023-05-06T22:03:13.374Z,18.30
2023-05-06T22:05:40.921Z,14.18
2023-05-06T22:08:08.247Z,12.50
2023-05-06T22:10:36.875Z,12.93
2023-05-06T22:13:04.226Z,12.55
2023-05-06T22:15:31.838Z,14.68
2023-05-06T22:17:59.528Z,12.70
2023-05-06T22:20:26.823Z,14.32
2023-05-06T22:22:54.158Z,11.13
2023-05-06T22:25:21.543Z,17.58
2023-05-06T22:27:50.155Z,13.43
2023-05-06T22:30:17.502Z,14.23
2023-05-06T22:32:45.647Z,16.42
2023-05-06T22:35:13.402Z,12.23
2023-05-06T22:37:41.189Z,12.23
2023-05-06T22:40:09.161Z,13.50
2023-05-06T22:42:36.594Z,11.27
2023-05-06T22:45:05.567Z,10.63
2023-05-06T22:47:32.932Z,13.23
2023-05-06T22:50:00.362Z,12.23
2023-05-06T22:52:27.682Z,13.73
2023-05-06T22:54:54.991Z,14.43
2023-05-06T22:57:25.000Z,13.45
2023-05-06T22:59:52.536Z,14.23
2023-05-06T23:02:21.288Z,14.55
2023-05-06T23:04:48.662Z,14.38
2023-05-06T23:07:16.157Z,15.98
2023-05-06T23:09:43.456Z,14.57
2023-05-06T23:12:10.731Z,14.45
2023-05-06T23:14:38.035Z,17.85
2023-05-06T23:17:05.382Z,19.58
2023-05-06T23:19:34.208Z,16.85
2023-05-06T23:22:01.516Z,22.17
2023-05-06T23:24:28.789Z,20.50
2023-05-06T23:26:56.140Z,24.23
2023-05-06T23:29:23.444Z,23.13
2023-05-06T23:31:50.725Z,21.92
2023-05-06T23:34:18.002Z,21.02
2023-05-06T23:36:46.620Z,21.02
2023-05-06T23:39:13.941Z,22.30
2023-05-06T23:41:41.271Z,17.52
2023-05-06T23:44:08.584Z,21.92
2023-05-06T23:46:35.935Z,18.23
2023-05-06T23:49:04.168Z,16.65
2023-05-06T23:51:32.612Z,17.23
2023-05-06T23:54:01.257Z,17.75
2023-05-06T23:56:28.589Z,17.00
2023-05-06T23:58:55.895Z,15.73
